Time;durP1;ratioP1;P1;durP2;ratioP2;P2;SDS_P1;SDS_P2;PMS_P1;PMS_P2;Temp;Humidity;BMP_temperature;BMP_pressure;BME280_temperature;BME280_humidity;BME280_pressure;Samples;Min_cycle;Max_cycle;Signal;HPM_P1;HPM_P2
2022/11/07 00:01:27;;;;;;;12.07;7.80;;;10.40;99.90;;;;;;5071698;28;20041;-70
2022/11/07 00:03:54;;;;;;;10.88;7.60;;;10.50;99.90;;;;;;5070185;28;20470;-70
2022/11/07 00:06:20;;;;;;;9.43;6.43;;;10.50;99.90;;;;;;5070482;28;20044;-69
2022/11/07 00:08:48;;;;;;;11.93;7.03;;;10.50;99.90;;;;;;5070526;28;20052;-71
2022/11/07 00:11:14;;;;;;;11.45;7.40;;;10.50;99.90;;;;;;5069006;28;20036;-70
2022/11/07 00:13:40;;;;;;;13.88;7.13;;;10.50;99.90;;;;;;5070373;28;20045;-70
2022/11/07 00:16:09;;;;;;;11.52;5.97;;;10.50;99.90;;;;;;5070222;28;20040;-70
2022/11/07 00:18:37;;;;;;;9.20;7.25;;;10.60;99.90;;;;;;5070312;28;20086;-69
2022/11/07 00:21:07;;;;;;;14.02;6.68;;;10.60;99.90;;;;;;5070563;28;20628;-70
2022/11/07 00:23:36;;;;;;;15.57;6.25;;;10.60;99.90;;;;;;5071626;28;20036;-70
2022/11/07 00:26:04;;;;;;;19.38;7.35;;;10.60;99.90;;;;;;5053675;28;20564;-70
2022/11/07 00:28:36;;;;;;;8.88;5.60;;;10.70;99.90;;;;;;5070359;28;20128;-70
2022/11/07 00:31:09;;;;;;;10.55;6.18;;;10.70;99.90;;;;;;5071758;28;20036;-70
2022/11/07 00:33:37;;;;;;;12.38;5.93;;;10.70;99.90;;;;;;5074064;28;20041;-69
2022/11/07 00:36:07;;;;;;;9.15;5.50;;;10.80;99.90;;;;;;5074042;28;20109;-70
2022/11/07 00:38:38;;;;;;;8.60;5.60;;;10.70;99.90;;;;;;5073775;28;20055;-70
2022/11/07 00:41:06;;;;;;;12.05;5.60;;;10.70;99.90;;;;;;5074778;28;20048;-69
2022/11/07 00:43:32;;;;;;;11.23;5.53;;;10.70;99.90;;;;;;5071443;28;20449;-70
2022/11/07 00:46:01;;;;;;;9.07;5.57;;;10.70;99.90;;;;;;5073740;28;20182;-70
2022/11/07 00:48:27;;;;;;;10.02;6.22;;;10.70;99.90;;;;;;5055835;28;20036;-70
2022/11/07 00:50:53;;;;;;;12.02;6.25;;;10.70;99.90;;;;;;5073598;28;20033;-69
2022/11/07 00:53:19;;;;;;;9.93;5.80;;;10.70;99.90;;;;;;5072271;28;20051;-70
2022/11/07 00:55:46;;;;;;;10.85;6.85;;;10.70;99.90;;;;;;5072159;28;20063;-70
2022/11/07 00:58:12;;;;;;;13.10;6.55;;;10.70;99.90;;;;;;5072276;28;20487;-70
2022/11/07 01:00:38;;;;;;;9.75;6.25;;;10.70;99.90;;;;;;5072314;28;20063;-70
2022/11/07 01:06:02;;;;;;;9.02;5.80;;;10.70;99.90;;;;;;5073353;28;20078;-69
2022/11/07 01:08:28;;;;;;;11.25;5.80;;;10.70;99.90;;;;;;5073654;28;20058;-69
2022/11/07 01:10:54;;;;;;;12.43;5.95;;;10.70;99.90;;;;;;5072292;28;20482;-69
2022/11/07 01:13:20;;;;;;;14.15;6.15;;;10.80;99.90;;;;;;5071221;28;20669;-68
2022/11/07 01:15:46;;;;;;;7.55;5.05;;;10.80;99.90;;;;;;5073267;28;20032;-68
2022/11/07 01:18:12;;;;;;;11.25;5.57;;;10.80;99.90;;;;;;5073268;28;20029;-69
2022/11/07 01:20:39;;;;;;;10.13;6.28;;;10.80;99.90;;;;;;5073215;28;20132;-68
2022/11/07 01:23:05;;;;;;;10.73;5.28;;;10.80;99.90;;;;;;5071861;28;20528;-68
2022/11/07 01:25:31;;;;;;;10.18;5.88;;;10.80;99.90;;;;;;5072975;28;20080;-68
2022/11/07 01:27:57;;;;;;;10.10;5.53;;;10.90;99.90;;;;;;5073113;28;20056;-69
2022/11/07 01:30:23;;;;;;;10.20;5.28;;;10.90;99.90;;;;;;5073191;28;20044;-69
2022/11/07 01:32:48;;;;;;;10.18;5.75;;;10.90;99.90;;;;;;5072930;28;20086;-68
2022/11/07 01:35:15;;;;;;;11.68;5.95;;;11.00;99.90;;;;;;5072900;28;20041;-69
2022/11/07 01:37:40;;;;;;;12.27;5.45;;;10.90;99.90;;;;;;5071765;28;20037;-68
2022/11/07 01:40:07;;;;;;;15.68;6.70;;;10.90;99.90;;;;;;5071383;28;20040;-69
2022/11/07 01:42:32;;;;;;;12.00;6.47;;;11.00;99.90;;;;;;5070187;28;20131;-68
2022/11/07 01:44:59;;;;;;;11.57;5.93;;;10.90;99.90;;;;;;5054495;28;20725;-68
2022/11/07 01:47:31;;;;;;;10.52;6.28;;;10.90;99.90;;;;;;5071635;28;20036;-68
2022/11/07 01:49:57;;;;;;;13.25;6.22;;;10.90;99.90;;;;;;5071261;28;20040;-68
2022/11/07 01:52:28;;;;;;;13.77;6.45;;;10.90;99.90;;;;;;5072503;28;20047;-68
2022/11/07 01:54:57;;;;;;;9.75;4.85;;;10.90;99.90;;;;;;5072396;28;20066;-68
2022/11/07 01:57:37;;;;;;;11.02;5.80;;;10.90;99.90;;;;;;5071253;28;20052;-68
2022/11/07 02:00:07;;;;;;;9.93;5.28;;;10.90;99.90;;;;;;5071066;28;20072;-68
2022/11/07 02:02:33;;;;;;;14.57;5.25;;;10.90;99.90;;;;;;5070983;28;20078;-68
2022/11/07 02:05:01;;;;;;;18.80;6.60;;;10.90;99.90;;;;;;5072519;28;20044;-68
2022/11/07 02:07:28;;;;;;;9.73;5.00;;;10.90;99.90;;;;;;5070939;28;20478;-68
2022/11/07 02:09:54;;;;;;;15.75;5.63;;;10.90;99.90;;;;;;5072211;28;20067;-69
2022/11/07 02:12:23;;;;;;;11.90;5.57;;;10.90;99.90;;;;;;5068998;28;20040;-68
2022/11/07 02:14:50;;;;;;;12.50;4.85;;;10.90;99.90;;;;;;5070821;28;20044;-68
2022/11/07 02:17:20;;;;;;;10.27;4.78;;;10.90;99.90;;;;;;5070842;28;20044;-68
2022/11/07 02:19:51;;;;;;;6.95;4.43;;;10.90;99.90;;;;;;5054291;28;20036;-67
2022/11/07 02:22:48;;;;;;;9.88;4.05;;;10.90;99.90;;;;;;5070871;28;20052;-68
2022/11/07 02:25:19;;;;;;;9.98;5.00;;;11.00;99.90;;;;;;5053814;28;20044;-69
2022/11/07 02:27:48;;;;;;;16.17;5.28;;;10.90;99.90;;;;;;5071931;28;20040;-69
2022/11/07 02:30:18;;;;;;;10.20;4.95;;;10.90;99.90;;;;;;5071737;28;20037;-68
2022/11/07 02:32:44;;;;;;;14.88;5.72;;;10.90;99.90;;;;;;5070738;28;20059;-69
2022/11/07 02:35:38;;;;;;;8.85;4.57;;;10.90;99.90;;;;;;5071757;28;20119;-68
2022/11/07 02:38:09;;;;;;;8.35;4.35;;;10.90;99.90;;;;;;5071502;28;20055;-68
2022/11/07 02:40:35;;;;;;;12.23;4.88;;;10.80;99.90;;;;;;5071801;28;20196;-67
2022/11/07 02:43:03;;;;;;;12.68;4.72;;;10.80;99.90;;;;;;5068428;28;20056;-68
2022/11/07 02:45:33;;;;;;;11.27;4.18;;;10.80;99.90;;;;;;5053909;28;20052;-68
2022/11/07 02:48:00;;;;;;;12.90;4.93;;;10.80;99.90;;;;;;5071451;28;20041;-68
2022/11/07 02:50:26;;;;;;;10.93;3.85;;;10.70;99.90;;;;;;5070213;28;20394;-68
2022/11/07 02:52:53;;;;;;;11.57;4.13;;;10.70;99.90;;;;;;5071440;28;20670;-69
2022/11/07 02:55:19;;;;;;;11.35;4.20;;;10.70;99.90;;;;;;5071214;28;20398;-68
2022/11/07 02:57:45;;;;;;;11.32;4.15;;;10.70;99.90;;;;;;5070335;28;20131;-69
2022/11/07 03:00:13;;;;;;;12.75;3.60;;;10.60;99.90;;;;;;5070236;28;20048;-68
2022/11/07 03:02:45;;;;;;;8.70;3.10;;;10.70;99.90;;;;;;5071108;28;20089;-68
2022/11/07 03:05:16;;;;;;;14.95;3.45;;;10.70;99.90;;;;;;5071233;28;20044;-68
2022/11/07 03:07:44;;;;;;;7.78;2.33;;;10.60;99.90;;;;;;5053684;28;20187;-68
2022/11/07 03:10:11;;;;;;;8.80;2.65;;;10.60;99.90;;;;;;5069648;28;20474;-69
2022/11/07 03:12:38;;;;;;;12.30;3.55;;;10.50;99.90;;;;;;5067914;28;20048;-69
2022/11/07 03:15:06;;;;;;;11.07;3.13;;;10.50;99.90;;;;;;5071026;28;20043;-69
2022/11/07 03:17:33;;;;;;;12.07;3.33;;;10.40;99.90;;;;;;5070135;28;20574;-68
2022/11/07 03:20:00;;;;;;;13.93;2.83;;;10.40;99.90;;;;;;5071089;28;20041;-69
2022/11/07 03:22:26;;;;;;;13.38;3.55;;;10.40;99.90;;;;;;5070008;28;20467;-69
2022/11/07 03:24:53;;;;;;;13.65;4.70;;;10.40;99.90;;;;;;5069871;28;20489;-69
2022/11/07 03:27:19;;;;;;;10.00;2.80;;;10.40;99.90;;;;;;5069922;28;20367;-68
2022/11/07 03:29:45;;;;;;;14.60;3.50;;;10.40;99.90;;;;;;5069712;28;20122;-68
2022/11/07 03:32:12;;;;;;;10.20;4.00;;;10.40;99.90;;;;;;5069730;28;20090;-69
2022/11/07 03:34:38;;;;;;;15.32;4.07;;;10.50;99.90;;;;;;5071148;28;20111;-68
2022/11/07 03:37:04;;;;;;;13.02;5.35;;;10.50;99.90;;;;;;5069562;28;20056;-68
2022/11/07 03:39:30;;;;;;;13.27;3.67;;;10.60;99.90;;;;;;5070766;28;20036;-68
2022/11/07 03:41:57;;;;;;;17.40;3.75;;;10.60;99.90;;;;;;5050997;28;20048;-69
2022/11/07 03:44:23;;;;;;;11.93;3.70;;;10.60;99.90;;;;;;5069800;28;20146;-68
2022/11/07 03:46:50;;;;;;;10.75;3.90;;;10.60;99.90;;;;;;5052921;28;20166;-68
2022/11/07 03:49:17;;;;;;;14.50;3.65;;;10.60;99.90;;;;;;5070758;28;20119;-68
2022/11/07 03:51:43;;;;;;;12.23;3.90;;;10.60;99.90;;;;;;5070704;28;20072;-69
2022/11/07 03:54:10;;;;;;;18.63;4.45;;;10.50;99.90;;;;;;5070812;28;20064;-68
2022/11/07 03:56:36;;;;;;;10.65;3.53;;;10.50;99.90;;;;;;5070586;28;20501;-68
2022/11/07 03:59:02;;;;;;;15.65;4.03;;;10.50;99.90;;;;;;5070769;28;20036;-68
2022/11/07 04:01:29;;;;;;;13.57;3.78;;;10.50;99.90;;;;;;5069654;28;20044;-69
2022/11/07 04:03:55;;;;;;;9.95;3.75;;;10.50;99.90;;;;;;5052984;28;20055;-68
2022/11/07 04:06:22;;;;;;;11.73;3.50;;;10.50;99.90;;;;;;5071633;28;20040;-68
2022/11/07 04:08:49;;;;;;;13.75;3.47;;;10.50;99.90;;;;;;5074551;28;20032;-68
2022/11/07 04:17:17;;;;;;;13.15;3.47;;;10.50;99.90;;;;;;5073571;28;20072;-69
2022/11/07 04:19:31;;;;;;;11.93;4.05;;;10.60;99.90;;;;;;5073208;28;20082;-68
2022/11/07 04:21:57;;;;;;;13.98;4.00;;;10.60;99.90;;;;;;5072872;28;20494;-69
2022/11/07 04:24:24;;;;;;;15.43;4.03;;;10.60;99.90;;;;;;5072998;28;20043;-69
2022/11/07 04:29:35;;;;;;;11.73;4.07;;;10.70;99.90;;;;;;5074070;28;20036;-68
2022/11/07 04:32:03;;;;;;;12.02;4.50;;;10.70;99.90;;;;;;5072966;28;20677;-68
2022/11/07 04:34:29;;;;;;;10.05;4.57;;;10.70;99.90;;;;;;5073951;28;20124;-67
2022/11/07 04:36:56;;;;;;;15.60;4.72;;;10.70;99.90;;;;;;5073980;28;20135;-67
2022/11/07 04:39:22;;;;;;;14.68;4.70;;;10.70;99.90;;;;;;5072547;28;20544;-67
2022/11/07 04:41:49;;;;;;;8.65;3.78;;;10.70;99.90;;;;;;5070595;28;20048;-67
2022/11/07 04:44:15;;;;;;;17.55;4.63;;;10.70;99.90;;;;;;5073984;28;20102;-67
2022/11/07 04:46:42;;;;;;;17.25;4.65;;;10.70;99.90;;;;;;5073714;28;20033;-67
2022/11/07 04:49:08;;;;;;;11.30;4.35;;;10.70;99.90;;;;;;5073629;28;20086;-67
2022/11/07 04:51:41;;;;;;;11.02;4.53;;;10.70;99.90;;;;;;5073376;28;20040;-68
2022/11/07 04:54:15;;;;;;;16.42;4.70;;;10.70;99.90;;;;;;5072681;28;20044;-67
2022/11/07 04:56:45;;;;;;;11.57;5.22;;;10.70;99.90;;;;;;5073448;28;20518;-68
2022/11/07 04:59:11;;;;;;;11.47;4.67;;;10.70;99.90;;;;;;5072576;28;20052;-68
2022/11/07 05:01:37;;;;;;;10.52;4.47;;;10.70;99.90;;;;;;5072057;28;20094;-68
2022/11/07 05:04:03;;;;;;;17.45;5.63;;;10.60;99.90;;;;;;5072438;28;20037;-68
2022/11/07 05:06:35;;;;;;;9.13;4.28;;;10.60;99.90;;;;;;5072047;28;20037;-68
2022/11/07 05:09:02;;;;;;;12.32;3.38;;;10.60;99.90;;;;;;5073461;28;20443;-68
2022/11/07 05:11:29;;;;;;;10.18;3.90;;;10.50;99.90;;;;;;5070229;28;20032;-67
2022/11/07 05:13:55;;;;;;;12.68;4.53;;;10.50;99.90;;;;;;5073334;28;20401;-67
2022/11/07 05:16:22;;;;;;;9.93;4.15;;;10.50;99.90;;;;;;5073279;28;20047;-67
2022/11/07 05:18:48;;;;;;;14.10;4.38;;;10.60;99.90;;;;;;5070978;28;20461;-68
2022/11/07 05:21:15;;;;;;;13.32;5.13;;;10.50;99.90;;;;;;5073311;28;20047;-68
2022/11/07 05:23:41;;;;;;;13.77;4.88;;;10.50;99.90;;;;;;5072222;28;20049;-67
2022/11/07 05:26:08;;;;;;;10.63;4.38;;;10.50;99.90;;;;;;5055089;28;20098;-68
2022/11/07 05:28:35;;;;;;;13.02;4.85;;;10.50;99.90;;;;;;5071945;28;20046;-68
2022/11/07 05:31:04;;;;;;;13.10;4.65;;;10.50;99.90;;;;;;5071713;28;20502;-68
2022/11/07 05:33:32;;;;;;;10.05;4.05;;;10.50;99.90;;;;;;5072930;28;20385;-68
2022/11/07 05:36:13;;;;;;;11.63;4.15;;;10.50;99.90;;;;;;5072852;28;20045;-68
2022/11/07 05:38:42;;;;;;;8.20;3.53;;;10.50;99.90;;;;;;5055190;28;20382;-69
2022/11/07 05:41:09;;;;;;;11.20;3.95;;;10.50;99.90;;;;;;5071512;28;20044;-68
2022/11/07 05:43:37;;;;;;;11.35;3.40;;;10.50;99.90;;;;;;5070544;28;20111;-69
2022/11/07 05:46:04;;;;;;;11.27;3.55;;;10.40;99.90;;;;;;5071562;28;20128;-68
2022/11/07 05:48:31;;;;;;;11.68;3.65;;;10.40;99.90;;;;;;5072646;28;20618;-68
2022/11/07 05:50:58;;;;;;;11.70;3.88;;;10.40;99.90;;;;;;5072571;28;20033;-68
2022/11/07 05:53:25;;;;;;;13.15;3.75;;;10.40;99.90;;;;;;5071498;28;20040;-68
2022/11/07 05:55:52;;;;;;;7.93;3.85;;;10.40;99.90;;;;;;5072277;28;20060;-68
2022/11/07 05:58:20;;;;;;;10.77;3.83;;;10.50;99.90;;;;;;5071468;28;20041;-68
2022/11/07 06:00:47;;;;;;;10.07;3.70;;;10.50;99.90;;;;;;5070867;28;20433;-68
2022/11/07 06:03:14;;;;;;;9.75;3.97;;;10.50;99.90;;;;;;5071018;28;20087;-68
2022/11/07 06:05:41;;;;;;;11.48;4.35;;;10.50;99.90;;;;;;5072270;28;20045;-68
2022/11/07 06:08:13;;;;;;;11.43;3.40;;;10.60;99.90;;;;;;5071179;28;20123;-67
2022/11/07 06:10:41;;;;;;;8.18;3.35;;;10.60;99.90;;;;;;5070892;28;20036;-68
2022/11/07 06:13:11;;;;;;;12.43;5.07;;;10.60;99.90;;;;;;5052202;28;20036;-67
2022/11/07 06:15:39;;;;;;;19.50;5.93;;;10.60;99.90;;;;;;5072031;28;20072;-68
2022/11/07 06:18:11;;;;;;;12.55;5.10;;;10.60;99.90;;;;;;5072086;28;20427;-68
2022/11/07 06:20:37;;;;;;;11.70;6.15;;;10.60;99.90;;;;;;5070983;28;20075;-69
2022/11/07 06:23:05;;;;;;;17.98;7.68;;;10.60;99.90;;;;;;5054206;28;20391;-68
2022/11/07 06:25:32;;;;;;;16.27;7.53;;;10.60;99.90;;;;;;5071773;28;20063;-69
2022/11/07 06:28:01;;;;;;;24.75;8.68;;;10.70;99.90;;;;;;5054145;28;20076;-68
2022/11/07 06:30:28;;;;;;;15.93;7.05;;;10.70;99.90;;;;;;5071450;28;20102;-69
2022/11/07 06:32:55;;;;;;;17.83;7.97;;;10.70;99.90;;;;;;5071672;28;20032;-69
2022/11/07 06:35:22;;;;;;;24.42;7.97;;;10.70;99.90;;;;;;5071540;28;20043;-68
2022/11/07 06:37:48;;;;;;;25.38;7.68;;;10.70;99.90;;;;;;5071564;28;20497;-68
2022/11/07 06:40:15;;;;;;;16.77;7.55;;;10.70;99.90;;;;;;5070518;28;20044;-68
2022/11/07 06:42:41;;;;;;;12.00;6.90;;;10.70;99.90;;;;;;5051925;28;20553;-67
2022/11/07 06:45:10;;;;;;;10.85;6.35;;;10.70;99.90;;;;;;5071578;28;20482;-67
2022/11/07 06:47:37;;;;;;;19.20;6.93;;;10.70;99.90;;;;;;5070577;28;20063;-67
2022/11/07 06:50:04;;;;;;;17.23;7.30;;;10.70;99.90;;;;;;5071398;28;20079;-67
2022/11/07 06:52:30;;;;;;;13.88;7.72;;;10.70;99.90;;;;;;5071409;28;20040;-67
2022/11/07 06:54:57;;;;;;;15.98;6.70;;;10.70;99.90;;;;;;5070286;28;20056;-68
2022/11/07 06:57:23;;;;;;;18.58;7.10;;;10.70;99.90;;;;;;5071344;28;20512;-68
2022/11/07 06:59:50;;;;;;;14.07;6.75;;;10.70;99.90;;;;;;5071309;28;20028;-68
2022/11/07 07:02:16;;;;;;;21.05;7.22;;;10.70;99.90;;;;;;5070260;28;20044;-68
2022/11/07 07:04:43;;;;;;;17.45;7.78;;;10.70;99.90;;;;;;5071225;28;20033;-69
2022/11/07 07:07:09;;;;;;;18.00;7.53;;;10.70;99.90;;;;;;5069891;28;20063;-66
2022/11/07 07:09:35;;;;;;;14.52;6.72;;;10.70;99.90;;;;;;5071257;28;20101;-68
2022/11/07 07:12:02;;;;;;;12.05;6.22;;;10.70;99.90;;;;;;5051600;28;20042;-66
2022/11/07 07:14:29;;;;;;;17.58;6.68;;;10.70;99.90;;;;;;5070974;28;20036;-68
2022/11/07 07:16:57;;;;;;;13.50;7.15;;;10.70;99.90;;;;;;5071097;28;20044;-66
2022/11/07 07:19:24;;;;;;;14.13;6.65;;;10.70;99.90;;;;;;5070025;28;20410;-67
2022/11/07 07:21:50;;;;;;;20.35;7.90;;;10.70;99.90;;;;;;5071147;28;20466;-68
2022/11/07 07:24:17;;;;;;;16.50;7.43;;;10.70;99.90;;;;;;5071075;28;20040;-68
2022/11/07 07:26:44;;;;;;;25.23;8.52;;;10.70;99.90;;;;;;5070816;28;20045;-67
2022/11/07 07:29:10;;;;;;;16.65;6.70;;;10.70;99.90;;;;;;5069580;28;20040;-67
2022/11/07 07:31:37;;;;;;;24.50;8.70;;;10.70;99.90;;;;;;5070999;28;20040;-67
2022/11/07 07:34:03;;;;;;;22.70;7.95;;;10.70;99.90;;;;;;5053353;28;20155;-67
2022/11/07 07:36:31;;;;;;;18.98;7.43;;;10.80;99.90;;;;;;5069896;28;20051;-68
2022/11/07 07:38:58;;;;;;;17.92;6.72;;;10.70;99.90;;;;;;5070974;28;20047;-67
2022/11/07 07:41:24;;;;;;;20.05;7.05;;;10.80;99.90;;;;;;5069422;28;20040;-67
2022/11/07 07:43:53;;;;;;;19.98;7.80;;;10.80;99.90;;;;;;5073675;28;20041;-68
2022/11/07 07:46:22;;;;;;;17.85;7.78;;;10.80;99.90;;;;;;5074820;28;20048;-68
2022/11/07 07:48:48;;;;;;;18.05;7.55;;;10.90;99.90;;;;;;5074795;28;20391;-68
2022/11/07 07:51:15;;;;;;;17.63;7.72;;;10.90;99.90;;;;;;5074808;28;20515;-68
2022/11/07 07:53:41;;;;;;;19.55;7.53;;;10.90;99.90;;;;;;5068946;28;20039;-68
2022/11/07 07:56:08;;;;;;;23.30;8.02;;;11.00;99.90;;;;;;5074521;28;20110;-67
2022/11/07 07:58:34;;;;;;;21.45;7.50;;;11.10;99.90;;;;;;5073502;28;20052;-68
2022/11/07 08:01:02;;;;;;;20.25;8.43;;;11.10;99.90;;;;;;5074385;28;20041;-68
2022/11/07 08:03:28;;;;;;;10.95;6.55;;;11.10;99.90;;;;;;5073195;28;20490;-69
2022/11/07 08:05:57;;;;;;;22.48;6.75;;;11.20;99.90;;;;;;5073206;28;20510;-68
2022/11/07 08:08:24;;;;;;;20.25;6.90;;;11.20;99.90;;;;;;5073327;28;20721;-68
2022/11/07 08:10:55;;;;;;;19.52;7.00;;;11.30;99.90;;;;;;5073345;28;20040;-69
2022/11/07 08:13:23;;;;;;;18.85;6.93;;;11.30;99.90;;;;;;5071935;28;20544;-69
2022/11/07 08:15:51;;;;;;;17.67;6.22;;;11.30;99.90;;;;;;5072450;28;20773;-69
2022/11/07 08:18:18;;;;;;;16.30;6.00;;;11.30;99.90;;;;;;5073053;28;20600;-67
2022/11/07 08:20:45;;;;;;;21.38;7.13;;;11.30;99.90;;;;;;5074170;28;20044;-69
2022/11/07 08:23:11;;;;;;;17.27;5.38;;;11.30;99.90;;;;;;5056520;28;20040;-69
2022/11/07 08:25:38;;;;;;;11.77;4.85;;;11.40;99.90;;;;;;5073898;28;20048;-67
2022/11/07 08:28:06;;;;;;;15.32;5.70;;;11.40;99.90;;;;;;5072807;28;20033;-68
2022/11/07 08:30:32;;;;;;;14.60;5.60;;;11.40;99.90;;;;;;5074094;28;20049;-68
2022/11/07 08:33:02;;;;;;;15.55;6.78;;;11.50;99.90;;;;;;5072947;28;20072;-68
2022/11/07 08:35:30;;;;;;;16.25;5.93;;;11.50;99.90;;;;;;5056386;28;20047;-68
2022/11/07 08:37:57;;;;;;;11.43;4.82;;;11.50;99.90;;;;;;5073903;28;20163;-68
2022/11/07 08:40:24;;;;;;;13.07;5.85;;;11.50;99.90;;;;;;5073861;28;20115;-68
2022/11/07 08:42:51;;;;;;;18.23;6.10;;;11.60;99.90;;;;;;5071793;28;20072;-69
2022/11/07 08:45:17;;;;;;;22.33;6.30;;;11.50;99.90;;;;;;5072721;28;20036;-68
2022/11/07 08:47:44;;;;;;;19.90;6.00;;;11.60;99.90;;;;;;5072779;28;20457;-68
2022/11/07 08:50:10;;;;;;;12.40;5.80;;;11.50;99.90;;;;;;5073798;28;20120;-68
2022/11/07 08:52:37;;;;;;;16.08;5.65;;;11.50;99.90;;;;;;5073543;28;20048;-68
2022/11/07 08:55:03;;;;;;;17.40;5.35;;;11.50;99.90;;;;;;5071929;28;20069;-68
2022/11/07 08:57:30;;;;;;;12.73;5.95;;;11.50;99.90;;;;;;5073593;28;20079;-67
2022/11/07 08:59:57;;;;;;;18.10;6.72;;;11.50;99.90;;;;;;5073583;28;20040;-68
2022/11/07 09:02:24;;;;;;;13.38;4.50;;;11.50;99.90;;;;;;5072465;28;20374;-68
2022/11/07 09:04:50;;;;;;;15.35;5.18;;;11.50;99.90;;;;;;5073506;28;20434;-67
2022/11/07 09:07:17;;;;;;;15.77;5.70;;;11.50;99.90;;;;;;5073348;28;20119;-68
2022/11/07 09:09:43;;;;;;;17.13;5.40;;;11.50;99.90;;;;;;5072482;28;20047;-68
2022/11/07 09:12:10;;;;;;;15.77;6.05;;;11.60;99.90;;;;;;5066541;28;20045;-68
2022/11/07 09:14:36;;;;;;;16.75;6.03;;;11.60;99.90;;;;;;5073189;28;20106;-68
2022/11/07 09:17:03;;;;;;;14.10;5.75;;;11.50;99.90;;;;;;5073456;28;20095;-68
2022/11/07 09:19:31;;;;;;;19.08;6.75;;;11.60;99.90;;;;;;5071472;28;20078;-68
2022/11/07 09:22:09;;;;;;;18.13;6.45;;;11.60;99.90;;;;;;5072631;28;20040;-68
2022/11/07 09:24:35;;;;;;;26.20;6.50;;;11.60;99.90;;;;;;5073939;28;20044;-68
2022/11/07 09:27:01;;;;;;;17.45;5.55;;;11.60;99.90;;;;;;5060488;28;20060;-69
2022/11/07 09:29:27;;;;;;;17.08;5.93;;;11.60;99.90;;;;;;5072447;28;20047;-68
2022/11/07 09:31:54;;;;;;;14.65;5.07;;;11.60;99.90;;;;;;5072864;28;20045;-68
2022/11/07 09:34:22;;;;;;;21.17;6.78;;;11.70;99.90;;;;;;5073810;28;20043;-68
2022/11/07 09:36:51;;;;;;;11.48;5.03;;;11.70;99.90;;;;;;5072751;28;20037;-67
2022/11/07 09:39:17;;;;;;;18.05;5.82;;;11.70;99.90;;;;;;5072678;28;20463;-68
2022/11/07 09:42:09;;;;;;;13.80;5.90;;;11.70;99.90;;;;;;5070273;28;20086;-68
2022/11/07 09:44:55;;;;;;;16.52;5.10;;;11.70;99.90;;;;;;5072756;28;20040;-68
2022/11/07 09:47:38;;;;;;;12.32;4.63;;;11.80;99.90;;;;;;5073414;28;20044;-68
2022/11/07 09:50:29;;;;;;;13.65;5.18;;;11.80;99.90;;;;;;5072450;28;20083;-68
2022/11/07 09:53:00;;;;;;;16.95;5.55;;;11.90;99.90;;;;;;5055288;28;20037;-68
2022/11/07 09:55:42;;;;;;;17.02;6.25;;;12.00;99.90;;;;;;5070887;28;20056;-68
2022/11/07 09:58:40;;;;;;;15.02;5.45;;;12.00;99.90;;;;;;5072155;28;20060;-68
2022/11/07 10:01:15;;;;;;;12.40;4.90;;;12.00;99.90;;;;;;5072125;28;20135;-68
2022/11/07 10:03:42;;;;;;;13.45;4.20;;;12.10;99.90;;;;;;5063219;28;20437;-66
2022/11/07 10:06:20;;;;;;;15.35;5.13;;;12.10;99.90;;;;;;5073229;28;20043;-68
2022/11/07 10:09:03;;;;;;;17.63;5.10;;;12.10;99.90;;;;;;5072151;28;20037;-68
2022/11/07 10:11:39;;;;;;;17.02;5.35;;;12.10;99.90;;;;;;5065054;28;20040;-68
2022/11/07 10:14:08;;;;;;;15.10;5.18;;;12.10;99.90;;;;;;5072022;28;20041;-69
2022/11/07 10:17:01;;;;;;;12.18;4.30;;;12.20;99.90;;;;;;5070675;28;20048;-69
2022/11/07 10:19:43;;;;;;;14.30;4.85;;;12.20;99.90;;;;;;5071868;28;20120;-68
2022/11/07 10:22:34;;;;;;;13.60;4.65;;;12.30;99.90;;;;;;5066316;28;20063;-68
2022/11/07 10:25:12;;;;;;;14.48;4.93;;;12.40;99.90;;;;;;5072618;28;20036;-68
2022/11/07 10:27:39;;;;;;;15.30;4.60;;;12.40;99.90;;;;;;5072474;28;20060;-69
2022/11/07 10:30:16;;;;;;;13.90;4.30;;;12.40;99.90;;;;;;5071802;28;20103;-69
2022/11/07 10:33:03;;;;;;;13.65;4.50;;;12.50;99.90;;;;;;5071451;28;20068;-69
2022/11/07 10:35:32;;;;;;;13.13;5.60;;;12.60;99.90;;;;;;5071446;28;20040;-69
2022/11/07 10:38:03;;;;;;;13.27;4.45;;;12.70;99.90;;;;;;5071390;28;20497;-68
2022/11/07 10:40:37;;;;;;;15.25;4.28;;;12.70;99.90;;;;;;5072401;28;20472;-69
2022/11/07 10:43:12;;;;;;;15.45;4.32;;;12.80;99.90;;;;;;5070326;28;20604;-69
2022/11/07 10:45:39;;;;;;;13.52;4.70;;;12.90;99.90;;;;;;5069977;28;20407;-69
2022/11/07 10:48:05;;;;;;;14.27;4.53;;;12.90;99.90;;;;;;5072424;28;20077;-68
2022/11/07 10:50:32;;;;;;;11.70;4.28;;;13.00;99.90;;;;;;5071327;28;20037;-69
2022/11/07 10:53:02;;;;;;;13.23;4.55;;;13.00;99.90;;;;;;5070936;28;20072;-69
2022/11/07 10:55:41;;;;;;;12.50;3.95;;;13.10;99.90;;;;;;5072116;28;20553;-69
2022/11/07 10:58:15;;;;;;;14.00;4.43;;;13.00;99.90;;;;;;5071352;28;20040;-68
2022/11/07 11:00:43;;;;;;;10.50;4.43;;;13.00;99.90;;;;;;5071757;28;20059;-68
2022/11/07 11:03:26;;;;;;;13.65;4.55;;;13.00;99.90;;;;;;5068945;28;20043;-68
2022/11/07 11:05:52;;;;;;;14.75;4.72;;;13.00;99.90;;;;;;5070578;28;20392;-69
2022/11/07 11:08:21;;;;;;;19.42;4.78;;;13.00;99.90;;;;;;5070513;28;20150;-69
2022/11/07 11:10:49;;;;;;;12.52;4.63;;;13.00;99.90;;;;;;5071517;28;20514;-68
2022/11/07 11:13:33;;;;;;;16.27;4.65;;;13.10;99.90;;;;;;5068253;28;20115;-69
2022/11/07 11:16:25;;;;;;;12.95;4.38;;;13.10;99.90;;;;;;5064703;28;20075;-69
2022/11/07 11:18:55;;;;;;;14.45;5.25;;;13.20;99.90;;;;;;5070775;28;20053;-69
2022/11/07 11:21:23;;;;;;;12.18;4.35;;;13.30;99.90;;;;;;5071767;28;20456;-69
2022/11/07 11:23:51;;;;;;;12.38;4.68;;;13.40;99.90;;;;;;5070891;28;20041;-68
2022/11/07 11:26:31;;;;;;;12.35;4.80;;;13.40;99.90;;;;;;5071690;28;20040;-69
2022/11/07 11:29:23;;;;;;;8.65;4.50;;;13.60;99.90;;;;;;5064147;28;20049;-69
2022/11/07 11:31:53;;;;;;;7.15;4.10;;;13.60;99.90;;;;;;5070582;28;20040;-70
2022/11/07 11:34:48;;;;;;;10.60;4.20;;;13.60;99.90;;;;;;5046623;28;20041;-70
2022/11/07 11:37:21;;;;;;;9.38;3.75;;;13.60;99.90;;;;;;5071687;28;20518;-70
2022/11/07 11:40:01;;;;;;;10.88;4.10;;;13.50;99.90;;;;;;5063379;28;20052;-68
2022/11/07 11:42:40;;;;;;;10.45;4.28;;;13.50;99.90;;;;;;5069501;28;20429;-69
2022/11/07 11:45:16;;;;;;;12.05;3.88;;;13.50;99.90;;;;;;5070637;28;20512;-69
2022/11/07 11:48:11;;;;;;;12.20;4.18;;;13.60;99.90;;;;;;5070659;28;20066;-69
2022/11/07 11:51:12;;;;;;;12.57;4.95;;;13.60;99.90;;;;;;5070388;28;20044;-70
2022/11/07 11:53:40;;;;;;;10.90;4.15;;;13.80;99.90;;;;;;5067557;28;20052;-69
2022/11/07 11:56:22;;;;;;;8.27;3.70;;;13.80;99.90;;;;;;5064162;28;20060;-70
2022/11/07 11:59:22;;;;;;;13.50;4.40;;;13.90;99.90;;;;;;5071580;28;20444;-69
2022/11/07 12:02:17;;;;;;;10.65;3.15;;;14.10;99.90;;;;;;5066034;28;20094;-69
2022/11/07 12:04:55;;;;;;;6.93;3.00;;;14.40;99.90;;;;;;5070420;28;20417;-69
2022/11/07 12:07:35;;;;;;;9.38;2.80;;;14.50;99.90;;;;;;5070035;28;20480;-70
2022/11/07 12:10:21;;;;;;;7.57;2.85;;;14.60;99.90;;;;;;5069555;28;20090;-69
2022/11/07 12:13:12;;;;;;;9.55;2.88;;;14.60;99.90;;;;;;5069191;28;20498;-70
2022/11/07 12:16:08;;;;;;;6.00;2.60;;;14.70;99.90;;;;;;5071237;28;20106;-69
2022/11/07 12:19:00;;;;;;;12.77;2.97;;;14.80;99.90;;;;;;5070282;28;20072;-69
2022/11/07 12:21:35;;;;;;;8.63;2.47;;;15.00;99.90;;;;;;5070121;28;20048;-70
2022/11/07 12:24:26;;;;;;;11.25;2.30;;;15.20;99.90;;;;;;5071174;28;20040;-69
2022/11/07 12:27:01;;;;;;;9.77;2.53;;;15.20;99.90;;;;;;5067364;28;20483;-69
2022/11/07 12:29:52;;;;;;;9.75;2.95;;;15.10;99.90;;;;;;5056380;28;20048;-69
2022/11/07 12:36:56;;;;;;;9.20;3.40;;;14.60;99.90;;;;;;5074379;28;20056;-69
2022/11/07 12:39:41;;;;;;;12.27;3.38;;;14.40;99.90;;;;;;5019932;28;20371;-69
2022/11/07 12:42:20;;;;;;;11.80;4.15;;;14.30;99.90;;;;;;5067044;28;20032;-69
2022/11/07 12:45:14;;;;;;;17.80;3.60;;;14.30;99.90;;;;;;5071524;28;20044;-69
2022/11/07 12:47:52;;;;;;;13.02;4.10;;;14.20;99.90;;;;;;5070223;28;20094;-69
2022/11/07 12:50:39;;;;;;;9.18;3.53;;;14.20;99.90;;;;;;5071055;28;20040;-69
2022/11/07 12:53:42;;;;;;;7.82;3.60;;;14.20;99.90;;;;;;5071487;28;20040;-69
2022/11/07 12:56:22;;;;;;;11.30;4.32;;;14.10;99.90;;;;;;5069300;28;20462;-69
2022/11/07 12:58:53;;;;;;;9.20;3.33;;;14.10;99.90;;;;;;5070647;28;20037;-69
2022/11/07 13:01:29;;;;;;;11.27;3.60;;;14.00;99.90;;;;;;5074316;28;20098;-70
2022/11/07 13:04:15;;;;;;;14.38;3.75;;;14.00;99.90;;;;;;5074094;28;20074;-69
2022/11/07 13:07:06;;;;;;;16.42;4.22;;;14.00;99.90;;;;;;5067682;28;20115;-69
2022/11/07 13:09:58;;;;;;;12.90;4.07;;;13.90;99.90;;;;;;5070598;28;20541;-68
2022/11/07 13:12:40;;;;;;;19.10;4.13;;;13.90;99.90;;;;;;5068444;28;20028;-69